SARP/PSS METAR and TAF weather

Enter ICAO airport designator
Station Type Date Time Source
SARP METAR 2021/01/22 02:00 UTC NOAA

SARP 220200Z 09008KT 9999 FEW010 23/22 Q1015


Station Type Date Time Source
SARP Decoded METAR 2021/01/22 02:00 UTC NOAA

Posadas Aero., Argentina (SARP) 27-22S 055-58W 133M
Jan 21, 2021 - 09:00 PM EST / 2021.01.22 0200 UTC
Wind: from the E (090 degrees) at 9 MPH (8 KT):0
Visibility: greater than 7 mile(s):0
Sky conditions: mostly clear
Temperature: 73 F (23 C)
Dew Point: 71 F (22 C)
Relative Humidity: 94%
Pressure (altimeter): 29.97 in. Hg (1015 hPa)
ob: SARP 220200Z 09008KT 9999 FEW010 23/22 Q1015
cycle: 2

Station Type Date Time Source
SARP TAF 2021/01/22 00:00 UTC NOAA

TAF SARP 212300Z 2200/2224 07010KT 9999 BKN010 TX33/2218Z TN21/2209Z
BECMG 2210/2210 02010KT CAVOK
BECMG 2214/2215 5000 TSRA SCT015 BKN040 FEW050CB

Example: see airport list